sensor_id;sensor_type;location;lat;lon;timestamp;pressure;altitude;pressure_sealevel;temperature;humidity
64827;BME280;51265;53.972;12.286;2023-04-06T00:02:16;101337.31;;;-1.40;100.00
64827;BME280;51265;53.972;12.286;2023-04-06T00:04:43;101335.41;;;-1.46;100.00
64827;BME280;51265;53.972;12.286;2023-04-06T00:07:10;101336.06;;;-1.44;100.00
64827;BME280;51265;53.972;12.286;2023-04-06T00:09:36;101331.88;;;-1.47;100.00
64827;BME280;51265;53.972;12.286;2023-04-06T00:12:03;101335.63;;;-1.55;100.00
64827;BME280;51265;53.972;12.286;2023-04-06T00:14:29;101337.06;;;-1.59;100.00
64827;BME280;51265;53.972;12.286;2023-04-06T00:16:55;101339.13;;;-1.61;100.00
64827;BME280;51265;53.972;12.286;2023-04-06T00:19:21;101343.94;;;-1.49;100.00
64827;BME280;51265;53.972;12.286;2023-04-06T00:21:47;101341.47;;;-1.44;100.00
64827;BME280;51265;53.972;12.286;2023-04-06T00:24:14;101338.94;;;-1.53;100.00
64827;BME280;51265;53.972;12.286;2023-04-06T00:26:40;101343.72;;;-1.55;100.00
64827;BME280;51265;53.972;12.286;2023-04-06T00:29:07;101343.06;;;-1.57;100.00
64827;BME280;51265;53.972;12.286;2023-04-06T00:31:33;101347.66;;;-1.51;100.00
64827;BME280;51265;53.972;12.286;2023-04-06T00:34:00;101345.16;;;-1.59;100.00
64827;BME280;51265;53.972;12.286;2023-04-06T00:36:26;101346.34;;;-1.68;100.00
64827;BME280;51265;53.972;12.286;2023-04-06T00:38:52;101340.94;;;-1.74;100.00
64827;BME280;51265;53.972;12.286;2023-04-06T00:41:19;101341.28;;;-1.84;100.00
64827;BME280;51265;53.972;12.286;2023-04-06T00:43:46;101336.69;;;-1.90;100.00
64827;BME280;51265;53.972;12.286;2023-04-06T00:46:12;101333.75;;;-1.95;100.00
64827;BME280;51265;53.972;12.286;2023-04-06T00:48:39;101345.38;;;-1.95;100.00
64827;BME280;51265;53.972;12.286;2023-04-06T00:51:06;101352.06;;;-1.84;100.00
64827;BME280;51265;53.972;12.286;2023-04-06T00:53:32;101343.41;;;-1.73;100.00
64827;BME280;51265;53.972;12.286;2023-04-06T00:56:01;101349.03;;;-1.68;100.00
64827;BME280;51265;53.972;12.286;2023-04-06T00:58:27;101350.56;;;-1.59;100.00
64827;BME280;51265;53.972;12.286;2023-04-06T01:01:02;101362.69;;;-1.41;100.00
64827;BME280;51265;53.972;12.286;2023-04-06T01:03:28;101342.25;;;-1.51;100.00
64827;BME280;51265;53.972;12.286;2023-04-06T01:05:54;101348.53;;;-1.43;100.00
64827;BME280;51265;53.972;12.286;2023-04-06T01:08:28;101333.50;;;-1.59;100.00
64827;BME280;51265;53.972;12.286;2023-04-06T01:11:07;101335.53;;;-1.68;100.00
64827;BME280;51265;53.972;12.286;2023-04-06T01:13:34;101335.19;;;-1.58;100.00
64827;BME280;51265;53.972;12.286;2023-04-06T01:16:04;101334.59;;;-1.54;100.00
64827;BME280;51265;53.972;12.286;2023-04-06T01:18:50;101331.88;;;-1.47;100.00
64827;BME280;51265;53.972;12.286;2023-04-06T01:21:20;101328.53;;;-1.56;100.00
64827;BME280;51265;53.972;12.286;2023-04-06T01:24:17;101334.75;;;-1.55;100.00
64827;BME280;51265;53.972;12.286;2023-04-06T01:26:59;101329.56;;;-1.57;100.00
64827;BME280;51265;53.972;12.286;2023-04-06T01:29:32;101326.66;;;-1.62;100.00
64827;BME280;51265;53.972;12.286;2023-04-06T01:32:00;101318.09;;;-1.65;100.00
64827;BME280;51265;53.972;12.286;2023-04-06T01:34:27;101321.03;;;-1.67;100.00
64827;BME280;51265;53.972;12.286;2023-04-06T01:36:58;101328.88;;;-1.72;100.00
64827;BME280;51265;53.972;12.286;2023-04-06T01:39:28;101327.38;;;-1.81;100.00
64827;BME280;51265;53.972;12.286;2023-04-06T01:41:55;101333.97;;;-1.90;100.00
64827;BME280;51265;53.972;12.286;2023-04-06T01:44:22;101330.38;;;-2.04;100.00
64827;BME280;51265;53.972;12.286;2023-04-06T01:46:55;101326.16;;;-2.13;100.00
64827;BME280;51265;53.972;12.286;2023-04-06T01:49:25;101324.88;;;-2.17;100.00
64827;BME280;51265;53.972;12.286;2023-04-06T01:51:55;101334.59;;;-2.23;100.00
64827;BME280;51265;53.972;12.286;2023-04-06T01:54:21;101333.53;;;-2.29;100.00
64827;BME280;51265;53.972;12.286;2023-04-06T01:57:02;101331.44;;;-2.33;100.00
64827;BME280;51265;53.972;12.286;2023-04-06T01:59:33;101325.97;;;-2.40;100.00
64827;BME280;51265;53.972;12.286;2023-04-06T02:02:05;101332.63;;;-2.42;100.00
64827;BME280;51265;53.972;12.286;2023-04-06T02:04:33;101337.16;;;-2.43;100.00
64827;BME280;51265;53.972;12.286;2023-04-06T02:07:08;101335.94;;;-2.40;100.00
64827;BME280;51265;53.972;12.286;2023-04-06T02:09:35;101342.03;;;-2.32;100.00
64827;BME280;51265;53.972;12.286;2023-04-06T02:12:02;101336.56;;;-2.38;100.00
64827;BME280;51265;53.972;12.286;2023-04-06T02:14:32;101331.72;;;-2.49;100.00
64827;BME280;51265;53.972;12.286;2023-04-06T02:17:00;101331.22;;;-2.60;100.00
64827;BME280;51265;53.972;12.286;2023-04-06T02:19:26;101329.69;;;-2.69;100.00
64827;BME280;51265;53.972;12.286;2023-04-06T02:21:53;101327.56;;;-2.73;100.00
64827;BME280;51265;53.972;12.286;2023-04-06T02:24:19;101334.59;;;-2.79;100.00
64827;BME280;51265;53.972;12.286;2023-04-06T02:26:45;101325.22;;;-2.83;100.00
64827;BME280;51265;53.972;12.286;2023-04-06T02:29:12;101325.00;;;-2.82;100.00
64827;BME280;51265;53.972;12.286;2023-04-06T02:31:38;101332.34;;;-2.76;100.00
64827;BME280;51265;53.972;12.286;2023-04-06T02:34:05;101334.47;;;-2.71;100.00
64827;BME280;51265;53.972;12.286;2023-04-06T02:36:33;101327.81;;;-2.68;100.00
64827;BME280;51265;53.972;12.286;2023-04-06T02:38:59;101336.59;;;-2.60;100.00
64827;BME280;51265;53.972;12.286;2023-04-06T02:41:26;101339.56;;;-2.55;100.00
64827;BME280;51265;53.972;12.286;2023-04-06T02:43:53;101343.28;;;-2.56;100.00
64827;BME280;51265;53.972;12.286;2023-04-06T02:46:31;101333.53;;;-2.57;100.00
64827;BME280;51265;53.972;12.286;2023-04-06T02:48:57;101332.50;;;-2.56;100.00
64827;BME280;51265;53.972;12.286;2023-04-06T02:51:27;101341.47;;;-2.48;100.00
64827;BME280;51265;53.972;12.286;2023-04-06T02:54:00;101336.56;;;-2.38;100.00
64827;BME280;51265;53.972;12.286;2023-04-06T02:56:26;101335.56;;;-2.37;100.00
64827;BME280;51265;53.972;12.286;2023-04-06T02:58:52;101342.63;;;-2.36;100.00
64827;BME280;51265;53.972;12.286;2023-04-06T03:01:21;101344.28;;;-2.35;100.00
64827;BME280;51265;53.972;12.286;2023-04-06T03:03:52;101347.63;;;-2.33;100.00
64827;BME280;51265;53.972;12.286;2023-04-06T03:06:24;101344.28;;;-2.35;100.00
64827;BME280;51265;53.972;12.286;2023-04-06T03:08:54;101341.81;;;-2.30;100.00
64827;BME280;51265;53.972;12.286;2023-04-06T03:11:20;101326.81;;;-2.39;100.00
64827;BME280;51265;53.972;12.286;2023-04-06T03:13:49;101341.19;;;-2.32;100.00
64827;BME280;51265;53.972;12.286;2023-04-06T03:16:15;101340.16;;;-2.31;100.00
64827;BME280;51265;53.972;12.286;2023-04-06T03:18:42;101332.72;;;-2.29;100.00
64827;BME280;51265;53.972;12.286;2023-04-06T03:21:12;101331.06;;;-2.23;100.00
64827;BME280;51265;53.972;12.286;2023-04-06T03:23:46;101327.47;;;-2.37;100.00
64827;BME280;51265;53.972;12.286;2023-04-06T03:26:12;101341.06;;;-2.17;100.00
64827;BME280;51265;53.972;12.286;2023-04-06T03:28:38;101329.13;;;-2.36;100.00
64827;BME280;51265;53.972;12.286;2023-04-06T03:31:06;101340.00;;;-2.23;100.00
64827;BME280;51265;53.972;12.286;2023-04-06T03:33:51;101342.22;;;-2.33;100.00
64827;BME280;51265;53.972;12.286;2023-04-06T03:36:22;101346.25;;;-2.51;100.00
64827;BME280;51265;53.972;12.286;2023-04-06T03:38:49;101337.25;;;-2.58;100.00
64827;BME280;51265;53.972;12.286;2023-04-06T03:41:15;101334.84;;;-2.74;100.00
64827;BME280;51265;53.972;12.286;2023-04-06T03:43:49;101336.00;;;-2.83;100.00
64827;BME280;51265;53.972;12.286;2023-04-06T03:46:17;101339.72;;;-2.84;100.00
64827;BME280;51265;53.972;12.286;2023-04-06T03:48:43;101343.97;;;-2.75;100.00
64827;BME280;51265;53.972;12.286;2023-04-06T03:51:10;101355.75;;;-2.55;100.00
64827;BME280;51265;53.972;12.286;2023-04-06T03:53:36;101361.63;;;-2.44;100.00
64827;BME280;51265;53.972;12.286;2023-04-06T03:56:03;101361.75;;;-2.31;100.00
64827;BME280;51265;53.972;12.286;2023-04-06T03:58:29;101356.09;;;-2.36;100.00
64827;BME280;51265;53.972;12.286;2023-04-06T04:00:56;101355.03;;;-2.42;100.00
64827;BME280;51265;53.972;12.286;2023-04-06T04:03:22;101352.91;;;-2.46;100.00
64827;BME280;51265;53.972;12.286;2023-04-06T04:05:49;101352.91;;;-2.46;100.00
64827;BME280;51265;53.972;12.286;2023-04-06T04:08:17;101354.06;;;-2.56;100.00
64827;BME280;51265;53.972;12.286;2023-04-06T04:10:44;101356.63;;;-2.47;100.00
64827;BME280;51265;53.972;12.286;2023-04-06T04:13:10;101368.00;;;-2.52;100.00
64827;BME280;51265;53.972;12.286;2023-04-06T04:15:36;101363.84;;;-2.55;100.00
64827;BME280;51265;53.972;12.286;2023-04-06T04:18:02;101361.91;;;-2.61;100.00
64827;BME280;51265;53.972;12.286;2023-04-06T04:20:29;101361.41;;;-2.71;100.00
64827;BME280;51265;53.972;12.286;2023-04-06T04:22:55;101362.19;;;-2.77;100.00
64827;BME280;51265;53.972;12.286;2023-04-06T04:25:22;101354.28;;;-2.79;100.00
64827;BME280;51265;53.972;12.286;2023-04-06T04:27:49;101367.56;;;-2.77;100.00
64827;BME280;51265;53.972;12.286;2023-04-06T04:30:18;101357.94;;;-2.86;100.00
64827;BME280;51265;53.972;12.286;2023-04-06T04:32:44;101365.81;;;-2.85;100.00
64827;BME280;51265;53.972;12.286;2023-04-06T04:35:10;101368.72;;;-2.86;100.00
64827;BME280;51265;53.972;12.286;2023-04-06T04:37:41;101376.81;;;-2.86;100.00
64827;BME280;51265;53.972;12.286;2023-04-06T04:40:08;101376.94;;;-2.73;100.00
64827;BME280;51265;53.972;12.286;2023-04-06T04:42:44;101378.09;;;-2.61;100.00
64827;BME280;51265;53.972;12.286;2023-04-06T04:45:17;101381.03;;;-2.56;100.00
64827;BME280;51265;53.972;12.286;2023-04-06T04:47:43;101380.22;;;-2.56;100.00
64827;BME280;51265;53.972;12.286;2023-04-06T04:50:12;101373.50;;;-2.67;100.00
64827;BME280;51265;53.972;12.286;2023-04-06T04:52:42;101371.09;;;-2.77;100.00
64827;BME280;51265;53.972;12.286;2023-04-06T04:55:19;101369.63;;;-2.79;100.00
64827;BME280;51265;53.972;12.286;2023-04-06T04:57:48;101366.28;;;-2.81;100.00
64827;BME280;51265;53.972;12.286;2023-04-06T05:00:17;101375.03;;;-2.79;100.00
64827;BME280;51265;53.972;12.286;2023-04-06T05:02:45;101379.19;;;-2.77;100.00
64827;BME280;51265;53.972;12.286;2023-04-06T05:05:15;101383.25;;;-2.66;100.00
64827;BME280;51265;53.972;12.286;2023-04-06T05:07:42;101384.16;;;-2.59;100.00
64827;BME280;51265;53.972;12.286;2023-04-06T05:10:14;101390.78;;;-2.33;100.00
64827;BME280;51265;53.972;12.286;2023-04-06T05:12:50;101390.13;;;-2.35;100.00
64827;BME280;51265;53.972;12.286;2023-04-06T05:15:16;101387.25;;;-2.34;100.00
64827;BME280;51265;53.972;12.286;2023-04-06T05:17:42;101386.69;;;-2.29;100.00
64827;BME280;51265;53.972;12.286;2023-04-06T05:20:12;101397.47;;;-2.29;100.00
64827;BME280;51265;53.972;12.286;2023-04-06T05:22:45;101398.34;;;-2.22;100.00
64827;BME280;51265;53.972;12.286;2023-04-06T05:25:13;101400.13;;;-2.08;100.00
64827;BME280;51265;53.972;12.286;2023-04-06T05:27:40;101401.84;;;-2.00;100.00
64827;BME280;51265;53.972;12.286;2023-04-06T05:30:16;101407.09;;;-1.92;100.00
64827;BME280;51265;53.972;12.286;2023-04-06T05:32:45;101409.81;;;-1.85;100.00
64827;BME280;51265;53.972;12.286;2023-04-06T05:35:11;101410.69;;;-1.78;100.00
64827;BME280;51265;53.972;12.286;2023-04-06T05:37:39;101405.38;;;-1.65;100.00
64827;BME280;51265;53.972;12.286;2023-04-06T05:40:07;101396.28;;;-1.51;100.00
64827;BME280;51265;53.972;12.286;2023-04-06T05:42:37;101400.53;;;-1.35;100.00
64827;BME280;51265;53.972;12.286;2023-04-06T05:45:06;101400.19;;;-1.25;100.00
64827;BME280;51265;53.972;12.286;2023-04-06T05:47:32;101402.72;;;-1.17;100.00
64827;BME280;51265;53.972;12.286;2023-04-06T05:50:07;101400.22;;;-1.05;100.00
64827;BME280;51265;53.972;12.286;2023-04-06T05:52:36;101398.16;;;-0.96;100.00
64827;BME280;51265;53.972;12.286;2023-04-06T05:55:03;101399.47;;;-0.79;100.00
64827;BME280;51265;53.972;12.286;2023-04-06T05:57:31;101400.56;;;-0.67;100.00
64827;BME280;51265;53.972;12.286;2023-04-06T05:59:57;101403.28;;;-0.40;100.00
64827;BME280;51265;53.972;12.286;2023-04-06T06:02:30;101401.22;;;-0.25;100.00
64827;BME280;51265;53.972;12.286;2023-04-06T06:04:56;101398.28;;;-0.04;100.00
64827;BME280;51265;53.972;12.286;2023-04-06T06:07:25;101393.25;;;0.13;100.00
64827;BME280;51265;53.972;12.286;2023-04-06T06:09:58;101395.28;;;0.31;100.00
64827;BME280;51265;53.972;12.286;2023-04-06T06:12:29;101400.25;;;0.41;100.00
64827;BME280;51265;53.972;12.286;2023-04-06T06:14:56;101390.84;;;0.50;100.00
64827;BME280;51265;53.972;12.286;2023-04-06T06:17:24;101391.47;;;0.59;100.00
64827;BME280;51265;53.972;12.286;2023-04-06T06:19:50;101385.22;;;0.52;100.00
64827;BME280;51265;53.972;12.286;2023-04-06T06:22:17;101381.47;;;0.53;100.00
64827;BME280;51265;53.972;12.286;2023-04-06T06:24:46;101389.78;;;0.58;100.00
64827;BME280;51265;53.972;12.286;2023-04-06T06:27:13;101381.41;;;0.66;100.00
64827;BME280;51265;53.972;12.286;2023-04-06T06:29:39;101395.53;;;0.81;100.00
64827;BME280;51265;53.972;12.286;2023-04-06T06:32:05;101403.38;;;0.96;100.00
64827;BME280;51265;53.972;12.286;2023-04-06T06:34:32;101407.53;;;1.05;100.00
64827;BME280;51265;53.972;12.286;2023-04-06T06:37:02;101393.72;;;1.13;100.00
64827;BME280;51265;53.972;12.286;2023-04-06T06:39:28;101404.09;;;1.23;100.00
64827;BME280;51265;53.972;12.286;2023-04-06T06:41:55;101409.00;;;1.39;100.00
64827;BME280;51265;53.972;12.286;2023-04-06T06:44:40;101416.00;;;1.54;100.00
64827;BME280;51265;53.972;12.286;2023-04-06T06:47:07;101413.72;;;1.75;100.00
64827;BME280;51265;53.972;12.286;2023-04-06T06:49:33;101412.19;;;1.86;100.00
64827;BME280;51265;53.972;12.286;2023-04-06T06:51:59;101401.88;;;1.95;100.00
64827;BME280;51265;53.972;12.286;2023-04-06T06:54:25;101404.53;;;2.02;100.00
64827;BME280;51265;53.972;12.286;2023-04-06T06:56:51;101403.91;;;1.99;100.00
64827;BME280;51265;53.972;12.286;2023-04-06T06:59:18;101404.00;;;1.93;100.00
64827;BME280;51265;53.972;12.286;2023-04-06T07:01:44;101406.78;;;2.05;100.00
64827;BME280;51265;53.972;12.286;2023-04-06T07:04:11;101406.16;;;2.09;100.00
64827;BME280;51265;53.972;12.286;2023-04-06T07:06:37;101408.34;;;2.19;100.00
64827;BME280;51265;53.972;12.286;2023-04-06T07:09:03;101408.50;;;2.24;100.00
64827;BME280;51265;53.972;12.286;2023-04-06T07:11:30;101404.44;;;2.33;100.00
64827;BME280;51265;53.972;12.286;2023-04-06T07:13:56;101410.19;;;2.43;100.00
64827;BME280;51265;53.972;12.286;2023-04-06T07:16:22;101404.38;;;2.58;100.00
64827;BME280;51265;53.972;12.286;2023-04-06T07:18:49;101405.38;;;2.64;100.00
64827;BME280;51265;53.972;12.286;2023-04-06T07:21:16;101405.06;;;2.72;100.00
64827;BME280;51265;53.972;12.286;2023-04-06T07:23:43;101402.25;;;2.79;100.00
64827;BME280;51265;53.972;12.286;2023-04-06T07:26:09;101409.09;;;2.99;100.00
64827;BME280;51265;53.972;12.286;2023-04-06T07:28:37;101405.50;;;3.17;100.00
64827;BME280;51265;53.972;12.286;2023-04-06T07:31:03;101408.81;;;3.49;100.00
64827;BME280;51265;53.972;12.286;2023-04-06T07:33:30;101405.53;;;3.71;100.00
64827;BME280;51265;53.972;12.286;2023-04-06T07:35:57;101401.56;;;3.85;100.00
64827;BME280;51265;53.972;12.286;2023-04-06T07:38:24;101401.44;;;4.04;100.00
64827;BME280;51265;53.972;12.286;2023-04-06T07:40:52;101389.72;;;4.15;100.00
64827;BME280;51265;53.972;12.286;2023-04-06T07:43:18;101388.28;;;4.24;100.00
64827;BME280;51265;53.972;12.286;2023-04-06T07:45:44;101383.50;;;4.43;100.00
64827;BME280;51265;53.972;12.286;2023-04-06T07:48:12;101383.38;;;4.61;100.00
64827;BME280;51265;53.972;12.286;2023-04-06T07:50:39;101380.28;;;4.69;100.00
64827;BME280;51265;53.972;12.286;2023-04-06T07:53:06;101378.69;;;4.85;100.00
64827;BME280;51265;53.972;12.286;2023-04-06T07:55:32;101380.53;;;4.96;100.00
64827;BME280;51265;53.972;12.286;2023-04-06T07:57:58;101373.94;;;5.09;100.00
64827;BME280;51265;53.972;12.286;2023-04-06T08:00:24;101367.34;;;5.22;100.00
64827;BME280;51265;53.972;12.286;2023-04-06T08:02:51;101360.94;;;5.28;100.00
64827;BME280;51265;53.972;12.286;2023-04-06T08:05:17;101349.53;;;5.31;100.00
64827;BME280;51265;53.972;12.286;2023-04-06T08:07:44;101338.91;;;5.35;100.00
64827;BME280;51265;53.972;12.286;2023-04-06T08:10:10;101330.72;;;5.52;100.00
64827;BME280;51265;53.972;12.286;2023-04-06T08:12:37;101298.53;;;5.54;100.00
64827;BME280;51265;53.972;12.286;2023-04-06T08:15:03;101301.59;;;5.74;100.00
64827;BME280;51265;53.972;12.286;2023-04-06T08:17:31;101290.03;;;5.89;100.00
64827;BME280;51265;53.972;12.286;2023-04-06T08:19:58;101276.13;;;5.90;100.00
64827;BME280;51265;53.972;12.286;2023-04-06T08:22:25;101259.06;;;6.00;100.00
64827;BME280;51265;53.972;12.286;2023-04-06T08:24:51;101238.06;;;6.06;100.00
64827;BME280;51265;53.972;12.286;2023-04-06T08:27:17;101237.41;;;6.15;100.00
64827;BME280;51265;53.972;12.286;2023-04-06T08:29:44;101255.13;;;6.57;100.00
64827;BME280;51265;53.972;12.286;2023-04-06T08:32:10;101255.44;;;6.87;100.00
64827;BME280;51265;53.972;12.286;2023-04-06T08:34:36;101234.19;;;6.99;100.00
64827;BME280;51265;53.972;12.286;2023-04-06T08:37:03;101186.03;;;7.04;100.00
64827;BME280;51265;53.972;12.286;2023-04-06T08:39:29;101176.41;;;7.01;100.00
64827;BME280;51265;53.972;12.286;2023-04-06T08:41:56;101167.41;;;7.06;100.00
64827;BME280;51265;53.972;12.286;2023-04-06T08:44:39;101169.81;;;7.34;100.00
64827;BME280;51265;53.972;12.286;2023-04-06T08:47:07;101121.59;;;7.38;97.97
64827;BME280;51265;53.972;12.286;2023-04-06T08:49:34;101082.75;;;7.52;93.67
64827;BME280;51265;53.972;12.286;2023-04-06T08:52:06;101090.53;;;7.70;93.35
64827;BME280;51265;53.972;12.286;2023-04-06T08:54:32;101100.47;;;7.86;93.20
64827;BME280;51265;53.972;12.286;2023-04-06T08:56:59;101107.38;;;8.14;92.39
64827;BME280;51265;53.972;12.286;2023-04-06T08:59:26;101072.00;;;8.23;90.71
64827;BME280;51265;53.972;12.286;2023-04-06T09:01:54;101059.13;;;8.34;89.53
64827;BME280;51265;53.972;12.286;2023-04-06T09:04:21;101046.28;;;8.44;88.53
64827;BME280;51265;53.972;12.286;2023-04-06T09:06:47;101029.78;;;8.55;87.40
64827;BME280;51265;53.972;12.286;2023-04-06T09:09:15;100994.09;;;8.60;85.63
64827;BME280;51265;53.972;12.286;2023-04-06T09:11:49;100964.97;;;8.74;83.19
64827;BME280;51265;53.972;12.286;2023-04-06T09:14:16;100895.16;;;8.90;78.97
64827;BME280;51265;53.972;12.286;2023-04-06T09:16:45;100897.25;;;9.09;78.00
64827;BME280;51265;53.972;12.286;2023-04-06T09:19:12;100889.50;;;9.21;77.25
64827;BME280;51265;53.972;12.286;2023-04-06T09:21:39;100813.09;;;9.23;73.17
64827;BME280;51265;53.972;12.286;2023-04-06T09:24:08;100838.25;;;9.40;73.87
64827;BME280;51265;53.972;12.286;2023-04-06T09:26:45;100755.22;;;9.43;70.36
64827;BME280;51265;53.972;12.286;2023-04-06T09:29:23;100725.50;;;9.45;68.92
64827;BME280;51265;53.972;12.286;2023-04-06T09:31:52;100743.31;;;9.53;68.88
64827;BME280;51265;53.972;12.286;2023-04-06T09:34:22;100736.31;;;9.66;68.66
64827;BME280;51265;53.972;12.286;2023-04-06T09:36:51;100700.16;;;9.78;66.88
64827;BME280;51265;53.972;12.286;2023-04-06T09:39:21;100643.75;;;9.80;64.47
64827;BME280;51265;53.972;12.286;2023-04-06T09:41:51;100700.75;;;9.98;66.39
64827;BME280;51265;53.972;12.286;2023-04-06T09:44:18;100706.38;;;10.12;66.39
64827;BME280;51265;53.972;12.286;2023-04-06T09:46:46;100597.53;;;10.01;62.75
64827;BME280;51265;53.972;12.286;2023-04-06T09:49:13;100553.94;;;9.89;61.65
64827;BME280;51265;53.972;12.286;2023-04-06T09:51:44;100579.19;;;9.96;61.96
64827;BME280;51265;53.972;12.286;2023-04-06T09:54:16;100499.63;;;10.00;59.38
64827;BME280;51265;53.972;12.286;2023-04-06T09:56:51;100554.13;;;10.17;60.84
64827;BME280;51265;53.972;12.286;2023-04-06T10:02:05;100506.44;;;10.21;60.15
64827;BME280;51265;53.972;12.286;2023-04-06T10:07:02;100536.38;;;10.61;59.87
64827;BME280;51265;53.972;12.286;2023-04-06T10:09:28;100571.75;;;10.86;61.25
64827;BME280;51265;53.972;12.286;2023-04-06T10:12:03;100473.59;;;10.77;58.22
64827;BME280;51265;53.972;12.286;2023-04-06T10:14:34;100469.50;;;10.74;58.42
64827;BME280;51265;53.972;12.286;2023-04-06T10:17:03;100460.72;;;10.58;58.71
64827;BME280;51265;53.972;12.286;2023-04-06T10:19:49;100465.63;;;10.75;58.53
64827;BME280;51265;53.972;12.286;2023-04-06T10:22:24;100517.31;;;10.97;59.57
64827;BME280;51265;53.972;12.286;2023-04-06T10:24:52;100444.63;;;11.07;57.45
64827;BME280;51265;53.972;12.286;2023-04-06T10:27:27;100385.34;;;10.95;56.53
64827;BME280;51265;53.972;12.286;2023-04-06T10:30:01;100322.00;;;10.68;55.12
64827;BME280;51265;53.972;12.286;2023-04-06T10:32:35;100407.41;;;10.95;57.19
64827;BME280;51265;53.972;12.286;2023-04-06T10:35:10;100456.22;;;11.59;56.60
64827;BME280;51265;53.972;12.286;2023-04-06T10:37:49;100365.50;;;11.93;54.16
64827;BME280;51265;53.972;12.286;2023-04-06T10:40:23;100309.09;;;12.08;51.65
64827;BME280;51265;53.972;12.286;2023-04-06T10:42:55;100353.69;;;12.33;52.59
64827;BME280;51265;53.972;12.286;2023-04-06T10:45:23;100256.59;;;12.39;50.15
64827;BME280;51265;53.972;12.286;2023-04-06T10:47:53;100265.13;;;12.69;49.38
64827;BME280;51265;53.972;12.286;2023-04-06T10:50:21;100221.09;;;12.81;48.25
64827;BME280;51265;53.972;12.286;2023-04-06T10:53:02;100204.19;;;12.91;47.64
64827;BME280;51265;53.972;12.286;2023-04-06T10:55:29;100132.66;;;12.81;46.15
64827;BME280;51265;53.972;12.286;2023-04-06T10:57:56;100169.75;;;12.80;47.64
64827;BME280;51265;53.972;12.286;2023-04-06T11:00:23;100121.59;;;12.99;45.80
64827;BME280;51265;53.972;12.286;2023-04-06T11:02:50;100048.44;;;12.87;44.87
64827;BME280;51265;53.972;12.286;2023-04-06T11:05:16;100089.59;;;12.80;45.68
64827;BME280;51265;53.972;12.286;2023-04-06T11:07:44;100019.75;;;12.36;45.05
64827;BME280;51265;53.972;12.286;2023-04-06T11:10:10;100066.03;;;12.57;45.81
64827;BME280;51265;53.972;12.286;2023-04-06T11:12:37;100094.78;;;12.90;45.45
64827;BME280;51265;53.972;12.286;2023-04-06T11:15:03;100019.81;;;13.01;43.29
64827;BME280;51265;53.972;12.286;2023-04-06T11:17:36;99980.81;;;12.93;42.34
64827;BME280;51265;53.972;12.286;2023-04-06T11:20:04;99953.81;;;12.90;41.58
64827;BME280;51265;53.972;12.286;2023-04-06T11:22:31;100103.34;;;13.32;44.49
64827;BME280;51265;53.972;12.286;2023-04-06T11:25:07;100146.38;;;13.68;44.93
64827;BME280;51265;53.972;12.286;2023-04-06T11:27:34;100250.66;;;13.93;47.04
64827;BME280;51265;53.972;12.286;2023-04-06T11:30:02;100246.06;;;13.98;47.26
64827;BME280;51265;53.972;12.286;2023-04-06T11:32:29;100223.19;;;14.18;46.51
64827;BME280;51265;53.972;12.286;2023-04-06T11:34:57;100215.56;;;14.44;45.78
64827;BME280;51265;53.972;12.286;2023-04-06T11:37:28;100134.16;;;14.58;43.67
64827;BME280;51265;53.972;12.286;2023-04-06T11:39:55;100161.56;;;14.80;44.11
64827;BME280;51265;53.972;12.286;2023-04-06T11:42:27;100210.38;;;14.93;45.38
64827;BME280;51265;53.972;12.286;2023-04-06T11:44:58;100146.31;;;14.86;44.06
64827;BME280;51265;53.972;12.286;2023-04-06T11:47:30;100141.38;;;14.71;45.01
64827;BME280;51265;53.972;12.286;2023-04-06T11:50:08;100096.63;;;14.81;43.17
64827;BME280;51265;53.972;12.286;2023-04-06T11:52:35;99989.66;;;14.68;41.37
64827;BME280;51265;53.972;12.286;2023-04-06T11:55:13;99984.44;;;14.45;41.61
64827;BME280;51265;53.972;12.286;2023-04-06T11:57:41;99937.47;;;14.16;41.45
64827;BME280;51265;53.972;12.286;2023-04-06T12:00:09;99938.22;;;14.37;40.40
64827;BME280;51265;53.972;12.286;2023-04-06T12:02:36;99853.00;;;14.10;39.46
64827;BME280;51265;53.972;12.286;2023-04-06T12:05:04;100127.75;;;14.66;44.36
64827;BME280;51265;53.972;12.286;2023-04-06T12:07:31;100085.69;;;14.85;42.85
64827;BME280;51265;53.972;12.286;2023-04-06T12:10:00;100119.22;;;15.37;42.63
64827;BME280;51265;53.972;12.286;2023-04-06T12:12:26;100109.44;;;15.52;42.36
64827;BME280;51265;53.972;12.286;2023-04-06T12:14:53;100116.91;;;15.85;42.12
64827;BME280;51265;53.972;12.286;2023-04-06T12:17:19;100098.84;;;16.03;41.59
64827;BME280;51265;53.972;12.286;2023-04-06T12:19:46;99990.91;;;15.89;40.08
64827;BME280;51265;53.972;12.286;2023-04-06T12:22:13;100075.84;;;15.90;41.81
64827;BME280;51265;53.972;12.286;2023-04-06T12:24:39;100002.94;;;15.93;40.34
64827;BME280;51265;53.972;12.286;2023-04-06T12:27:06;100068.38;;;16.31;40.86
64827;BME280;51265;53.972;12.286;2023-04-06T12:29:32;100078.66;;;16.83;39.97
64827;BME280;51265;53.972;12.286;2023-04-06T12:31:59;100113.03;;;16.91;41.01
64827;BME280;51265;53.972;12.286;2023-04-06T12:34:27;99997.09;;;16.23;40.50
64827;BME280;51265;53.972;12.286;2023-04-06T12:36:53;100073.84;;;16.68;40.54
64827;BME280;51265;53.972;12.286;2023-04-06T12:39:20;99983.88;;;16.20;40.59
64827;BME280;51265;53.972;12.286;2023-04-06T12:41:47;100072.44;;;16.62;41.45
64827;BME280;51265;53.972;12.286;2023-04-06T12:44:14;100151.47;;;17.01;41.73
64827;BME280;51265;53.972;12.286;2023-04-06T12:46:40;99970.25;;;16.15;40.56
64827;BME280;51265;53.972;12.286;2023-04-06T12:49:14;100013.06;;;16.26;40.73